Tumwater, Washington
Current Conditions -  °F | °C
As of 2:16 PM on Sunday 25 Jan 2015 (Local Time) from KOLM Reporting Station
Scattered Clouds Scattered Clouds  
Wind Chill: 53°   Ceiling: Unl
Heat Index: 53°   Visibility: 10mi
Dew Point: 49°   Wind: 3mph
Humidity: 86%   Direction: 100°E
Pressure: 30.09"   Gusts: NA
Location:  47.038°N, 122.899°W
Report Text: KOLM 252216Z 10003KT 10SM SCT006 12/09 A3009 RMK AO2 T01170094
Loading
Personal Weather Stations






























Interactive Weather Map New forecast layout! Learn more

10-Day Weather Forecast

Advertisements
Track Severe Weather on mobile